sensor_id;sensor_type;location;lat;lon;timestamp;P1;durP1;ratioP1;P2;durP2;ratioP2
9328;SDS011;4703;48.748;19.142;2023-04-24T00:01:59;14.07;;;9.63;;
9328;SDS011;4703;48.748;19.142;2023-04-24T00:04:27;10.20;;;9.20;;
9328;SDS011;4703;48.748;19.142;2023-04-24T00:06:54;10.37;;;9.27;;
9328;SDS011;4703;48.748;19.142;2023-04-24T00:09:23;9.17;;;8.37;;
9328;SDS011;4703;48.748;19.142;2023-04-24T00:11:50;9.60;;;8.70;;
9328;SDS011;4703;48.748;19.142;2023-04-24T00:14:17;13.00;;;10.50;;
9328;SDS011;4703;48.748;19.142;2023-04-24T00:16:44;9.57;;;8.57;;
9328;SDS011;4703;48.748;19.142;2023-04-24T00:19:11;10.10;;;9.20;;
9328;SDS011;4703;48.748;19.142;2023-04-24T00:21:39;10.70;;;9.60;;
9328;SDS011;4703;48.748;19.142;2023-04-24T00:24:07;10.20;;;9.20;;
9328;SDS011;4703;48.748;19.142;2023-04-24T00:26:36;10.07;;;9.17;;
9328;SDS011;4703;48.748;19.142;2023-04-24T00:29:03;11.40;;;9.10;;
9328;SDS011;4703;48.748;19.142;2023-04-24T00:31:30;10.80;;;8.47;;
9328;SDS011;4703;48.748;19.142;2023-04-24T00:34:01;9.40;;;8.50;;
9328;SDS011;4703;48.748;19.142;2023-04-24T00:36:29;10.33;;;9.40;;
9328;SDS011;4703;48.748;19.142;2023-04-24T00:38:57;9.33;;;8.33;;
9328;SDS011;4703;48.748;19.142;2023-04-24T00:41:25;12.30;;;9.20;;
9328;SDS011;4703;48.748;19.142;2023-04-24T00:43:52;9.10;;;8.33;;
9328;SDS011;4703;48.748;19.142;2023-04-24T00:46:19;9.40;;;8.60;;
9328;SDS011;4703;48.748;19.142;2023-04-24T00:48:47;9.00;;;8.20;;
9328;SDS011;4703;48.748;19.142;2023-04-24T00:51:15;9.77;;;8.60;;
9328;SDS011;4703;48.748;19.142;2023-04-24T00:53:42;9.90;;;8.90;;
9328;SDS011;4703;48.748;19.142;2023-04-24T00:56:09;9.07;;;8.17;;
9328;SDS011;4703;48.748;19.142;2023-04-24T00:58:37;11.37;;;8.77;;
9328;SDS011;4703;48.748;19.142;2023-04-24T01:01:05;10.10;;;9.13;;
9328;SDS011;4703;48.748;19.142;2023-04-24T01:03:33;10.03;;;9.10;;
9328;SDS011;4703;48.748;19.142;2023-04-24T01:06:03;9.57;;;8.67;;
9328;SDS011;4703;48.748;19.142;2023-04-24T01:08:31;11.50;;;9.40;;
9328;SDS011;4703;48.748;19.142;2023-04-24T01:10:59;10.37;;;9.37;;
9328;SDS011;4703;48.748;19.142;2023-04-24T01:13:28;11.83;;;9.60;;
9328;SDS011;4703;48.748;19.142;2023-04-24T01:15:55;10.90;;;9.33;;
9328;SDS011;4703;48.748;19.142;2023-04-24T01:18:22;10.50;;;9.50;;
9328;SDS011;4703;48.748;19.142;2023-04-24T01:20:50;9.87;;;8.40;;
9328;SDS011;4703;48.748;19.142;2023-04-24T01:23:19;8.77;;;8.07;;
9328;SDS011;4703;48.748;19.142;2023-04-24T01:25:46;9.20;;;8.30;;
9328;SDS011;4703;48.748;19.142;2023-04-24T01:28:16;12.80;;;9.20;;
9328;SDS011;4703;48.748;19.142;2023-04-24T01:30:43;9.40;;;8.47;;
9328;SDS011;4703;48.748;19.142;2023-04-24T01:33:10;9.83;;;8.83;;
9328;SDS011;4703;48.748;19.142;2023-04-24T01:35:37;10.70;;;9.10;;
9328;SDS011;4703;48.748;19.142;2023-04-24T01:38:05;9.80;;;8.80;;
9328;SDS011;4703;48.748;19.142;2023-04-24T01:40:32;10.33;;;9.40;;
9328;SDS011;4703;48.748;19.142;2023-04-24T01:42:59;9.50;;;8.60;;
9328;SDS011;4703;48.748;19.142;2023-04-24T01:45:26;9.63;;;8.67;;
9328;SDS011;4703;48.748;19.142;2023-04-24T01:47:53;11.80;;;8.17;;
9328;SDS011;4703;48.748;19.142;2023-04-24T01:50:21;10.43;;;9.03;;
9328;SDS011;4703;48.748;19.142;2023-04-24T01:52:47;11.20;;;9.47;;
9328;SDS011;4703;48.748;19.142;2023-04-24T01:55:14;11.27;;;8.90;;
9328;SDS011;4703;48.748;19.142;2023-04-24T01:57:41;9.67;;;8.80;;
9328;SDS011;4703;48.748;19.142;2023-04-24T02:00:08;10.50;;;9.50;;
9328;SDS011;4703;48.748;19.142;2023-04-24T02:02:38;9.50;;;8.60;;
9328;SDS011;4703;48.748;19.142;2023-04-24T02:05:07;9.67;;;8.40;;
9328;SDS011;4703;48.748;19.142;2023-04-24T02:07:34;9.20;;;8.17;;
9328;SDS011;4703;48.748;19.142;2023-04-24T02:10:02;9.37;;;8.40;;
9328;SDS011;4703;48.748;19.142;2023-04-24T02:12:32;10.30;;;9.30;;
9328;SDS011;4703;48.748;19.142;2023-04-24T02:14:59;11.20;;;9.80;;
9328;SDS011;4703;48.748;19.142;2023-04-24T02:17:26;9.63;;;8.47;;
9328;SDS011;4703;48.748;19.142;2023-04-24T02:19:53;9.60;;;8.77;;
9328;SDS011;4703;48.748;19.142;2023-04-24T02:22:20;9.03;;;8.23;;
9328;SDS011;4703;48.748;19.142;2023-04-24T02:24:47;9.97;;;8.97;;
9328;SDS011;4703;48.748;19.142;2023-04-24T02:27:14;9.17;;;8.33;;
9328;SDS011;4703;48.748;19.142;2023-04-24T02:29:41;9.50;;;8.60;;
9328;SDS011;4703;48.748;19.142;2023-04-24T02:32:09;10.17;;;8.37;;
9328;SDS011;4703;48.748;19.142;2023-04-24T02:34:39;11.87;;;10.77;;
9328;SDS011;4703;48.748;19.142;2023-04-24T02:37:06;9.90;;;9.10;;
9328;SDS011;4703;48.748;19.142;2023-04-24T02:39:33;9.63;;;8.60;;
9328;SDS011;4703;48.748;19.142;2023-04-24T02:41:59;10.30;;;9.30;;
9328;SDS011;4703;48.748;19.142;2023-04-24T02:44:27;10.87;;;9.87;;
9328;SDS011;4703;48.748;19.142;2023-04-24T02:46:54;10.43;;;9.43;;
9328;SDS011;4703;48.748;19.142;2023-04-24T02:49:21;10.40;;;9.40;;
9328;SDS011;4703;48.748;19.142;2023-04-24T02:51:48;9.83;;;8.93;;
9328;SDS011;4703;48.748;19.142;2023-04-24T02:54:15;12.53;;;10.10;;
9328;SDS011;4703;48.748;19.142;2023-04-24T02:56:42;10.10;;;9.10;;
9328;SDS011;4703;48.748;19.142;2023-04-24T02:59:09;10.63;;;9.53;;
9328;SDS011;4703;48.748;19.142;2023-04-24T03:01:36;11.63;;;9.13;;
9328;SDS011;4703;48.748;19.142;2023-04-24T03:04:03;10.43;;;9.43;;
9328;SDS011;4703;48.748;19.142;2023-04-24T03:06:30;10.00;;;9.20;;
9328;SDS011;4703;48.748;19.142;2023-04-24T03:08:59;10.07;;;9.27;;
9328;SDS011;4703;48.748;19.142;2023-04-24T03:11:26;10.13;;;9.13;;
9328;SDS011;4703;48.748;19.142;2023-04-24T03:13:53;10.33;;;9.43;;
9328;SDS011;4703;48.748;19.142;2023-04-24T03:16:20;10.60;;;9.50;;
9328;SDS011;4703;48.748;19.142;2023-04-24T03:18:47;12.53;;;9.97;;
9328;SDS011;4703;48.748;19.142;2023-04-24T03:21:13;10.87;;;9.70;;
9328;SDS011;4703;48.748;19.142;2023-04-24T03:23:40;11.70;;;10.50;;
9328;SDS011;4703;48.748;19.142;2023-04-24T03:26:07;11.20;;;9.87;;
9328;SDS011;4703;48.748;19.142;2023-04-24T03:28:34;13.43;;;11.30;;
9328;SDS011;4703;48.748;19.142;2023-04-24T03:31:02;11.40;;;10.20;;
9328;SDS011;4703;48.748;19.142;2023-04-24T03:33:30;11.10;;;10.00;;
9328;SDS011;4703;48.748;19.142;2023-04-24T03:35:56;11.17;;;10.10;;
9328;SDS011;4703;48.748;19.142;2023-04-24T03:38:23;12.30;;;11.07;;
9328;SDS011;4703;48.748;19.142;2023-04-24T03:40:50;11.63;;;10.17;;
9328;SDS011;4703;48.748;19.142;2023-04-24T03:43:17;12.60;;;10.60;;
9328;SDS011;4703;48.748;19.142;2023-04-24T03:45:44;10.57;;;9.60;;
9328;SDS011;4703;48.748;19.142;2023-04-24T03:48:11;14.23;;;10.70;;
9328;SDS011;4703;48.748;19.142;2023-04-24T03:50:38;10.87;;;9.60;;
9328;SDS011;4703;48.748;19.142;2023-04-24T03:53:05;10.90;;;9.87;;
9328;SDS011;4703;48.748;19.142;2023-04-24T03:55:32;10.20;;;9.23;;
9328;SDS011;4703;48.748;19.142;2023-04-24T03:57:59;11.87;;;10.17;;
9328;SDS011;4703;48.748;19.142;2023-04-24T04:00:26;10.77;;;9.53;;
9328;SDS011;4703;48.748;19.142;2023-04-24T04:02:53;10.57;;;9.57;;
9328;SDS011;4703;48.748;19.142;2023-04-24T04:05:21;10.10;;;9.20;;
9328;SDS011;4703;48.748;19.142;2023-04-24T04:07:48;11.00;;;10.00;;
9328;SDS011;4703;48.748;19.142;2023-04-24T04:10:15;11.40;;;10.20;;
9328;SDS011;4703;48.748;19.142;2023-04-24T04:12:43;11.93;;;10.53;;
9328;SDS011;4703;48.748;19.142;2023-04-24T04:15:10;13.33;;;10.97;;
9328;SDS011;4703;48.748;19.142;2023-04-24T04:17:37;11.30;;;9.90;;
9328;SDS011;4703;48.748;19.142;2023-04-24T04:20:04;10.10;;;9.07;;
9328;SDS011;4703;48.748;19.142;2023-04-24T04:22:38;12.17;;;10.57;;
9328;SDS011;4703;48.748;19.142;2023-04-24T04:25:09;10.93;;;9.93;;
9328;SDS011;4703;48.748;19.142;2023-04-24T04:27:37;13.43;;;9.60;;
9328;SDS011;4703;48.748;19.142;2023-04-24T04:30:05;10.50;;;9.40;;
9328;SDS011;4703;48.748;19.142;2023-04-24T04:32:33;13.70;;;10.90;;
9328;SDS011;4703;48.748;19.142;2023-04-24T04:35:00;12.70;;;11.47;;
9328;SDS011;4703;48.748;19.142;2023-04-24T04:37:30;16.50;;;9.90;;
9328;SDS011;4703;48.748;19.142;2023-04-24T04:39:59;10.47;;;9.37;;
9328;SDS011;4703;48.748;19.142;2023-04-24T04:42:26;10.70;;;9.60;;
9328;SDS011;4703;48.748;19.142;2023-04-24T04:44:54;10.47;;;9.50;;
9328;SDS011;4703;48.748;19.142;2023-04-24T04:47:23;10.27;;;9.30;;
9328;SDS011;4703;48.748;19.142;2023-04-24T04:49:51;11.43;;;9.73;;
9328;SDS011;4703;48.748;19.142;2023-04-24T04:52:18;10.60;;;8.73;;
9328;SDS011;4703;48.748;19.142;2023-04-24T04:54:45;11.03;;;9.83;;
9328;SDS011;4703;48.748;19.142;2023-04-24T04:57:12;11.53;;;9.67;;
9328;SDS011;4703;48.748;19.142;2023-04-24T04:59:39;11.27;;;9.87;;
9328;SDS011;4703;48.748;19.142;2023-04-24T05:02:07;11.43;;;10.33;;
9328;SDS011;4703;48.748;19.142;2023-04-24T05:04:35;11.90;;;10.30;;
9328;SDS011;4703;48.748;19.142;2023-04-24T05:07:02;10.03;;;9.13;;
9328;SDS011;4703;48.748;19.142;2023-04-24T05:09:29;19.33;;;15.80;;
9328;SDS011;4703;48.748;19.142;2023-04-24T05:11:56;20.60;;;17.73;;
9328;SDS011;4703;48.748;19.142;2023-04-24T05:14:23;13.83;;;12.40;;
9328;SDS011;4703;48.748;19.142;2023-04-24T05:16:50;11.90;;;10.80;;
9328;SDS011;4703;48.748;19.142;2023-04-24T05:19:17;13.43;;;10.87;;
9328;SDS011;4703;48.748;19.142;2023-04-24T05:21:44;14.50;;;13.07;;
9328;SDS011;4703;48.748;19.142;2023-04-24T05:24:11;11.87;;;10.67;;
9328;SDS011;4703;48.748;19.142;2023-04-24T05:26:38;12.83;;;10.20;;
9328;SDS011;4703;48.748;19.142;2023-04-24T05:29:05;12.27;;;10.73;;
9328;SDS011;4703;48.748;19.142;2023-04-24T05:31:32;11.13;;;10.07;;
9328;SDS011;4703;48.748;19.142;2023-04-24T05:33:59;10.83;;;9.83;;
9328;SDS011;4703;48.748;19.142;2023-04-24T05:36:26;11.30;;;9.37;;
9328;SDS011;4703;48.748;19.142;2023-04-24T05:38:54;10.83;;;9.73;;
9328;SDS011;4703;48.748;19.142;2023-04-24T05:41:21;11.03;;;9.90;;
9328;SDS011;4703;48.748;19.142;2023-04-24T05:43:48;11.23;;;10.13;;
9328;SDS011;4703;48.748;19.142;2023-04-24T05:46:16;11.53;;;10.43;;
9328;SDS011;4703;48.748;19.142;2023-04-24T05:48:43;14.00;;;10.00;;
9328;SDS011;4703;48.748;19.142;2023-04-24T05:51:09;15.30;;;10.43;;
9328;SDS011;4703;48.748;19.142;2023-04-24T05:53:36;12.47;;;10.97;;
9328;SDS011;4703;48.748;19.142;2023-04-24T05:56:03;12.07;;;10.80;;
9328;SDS011;4703;48.748;19.142;2023-04-24T05:58:30;11.50;;;10.50;;
9328;SDS011;4703;48.748;19.142;2023-04-24T06:00:57;10.90;;;9.80;;
9328;SDS011;4703;48.748;19.142;2023-04-24T06:03:27;10.63;;;9.57;;
9328;SDS011;4703;48.748;19.142;2023-04-24T06:05:54;10.67;;;9.73;;
9328;SDS011;4703;48.748;19.142;2023-04-24T06:08:21;15.60;;;11.00;;
9328;SDS011;4703;48.748;19.142;2023-04-24T06:10:48;10.63;;;9.63;;
9328;SDS011;4703;48.748;19.142;2023-04-24T06:13:15;11.37;;;10.20;;
9328;SDS011;4703;48.748;19.142;2023-04-24T06:15:43;11.70;;;10.43;;
9328;SDS011;4703;48.748;19.142;2023-04-24T06:18:10;12.07;;;10.87;;
9328;SDS011;4703;48.748;19.142;2023-04-24T06:20:37;11.27;;;10.20;;
9328;SDS011;4703;48.748;19.142;2023-04-24T06:23:04;13.77;;;10.73;;
9328;SDS011;4703;48.748;19.142;2023-04-24T06:25:31;11.80;;;10.70;;
9328;SDS011;4703;48.748;19.142;2023-04-24T06:27:58;11.50;;;10.40;;
9328;SDS011;4703;48.748;19.142;2023-04-24T06:30:25;14.63;;;11.30;;
9328;SDS011;4703;48.748;19.142;2023-04-24T06:32:54;11.83;;;10.73;;
9328;SDS011;4703;48.748;19.142;2023-04-24T06:35:28;10.60;;;9.03;;
9328;SDS011;4703;48.748;19.142;2023-04-24T06:37:55;10.30;;;9.30;;
9328;SDS011;4703;48.748;19.142;2023-04-24T06:40:22;14.60;;;11.07;;
9328;SDS011;4703;48.748;19.142;2023-04-24T06:42:49;18.03;;;14.30;;
9328;SDS011;4703;48.748;19.142;2023-04-24T06:45:16;13.10;;;11.67;;
9328;SDS011;4703;48.748;19.142;2023-04-24T06:47:43;13.20;;;12.00;;
9328;SDS011;4703;48.748;19.142;2023-04-24T06:50:10;12.07;;;10.70;;
9328;SDS011;4703;48.748;19.142;2023-04-24T06:52:37;10.83;;;9.87;;
9328;SDS011;4703;48.748;19.142;2023-04-24T06:55:04;15.63;;;10.03;;
9328;SDS011;4703;48.748;19.142;2023-04-24T06:57:32;11.47;;;10.37;;
9328;SDS011;4703;48.748;19.142;2023-04-24T06:59:59;12.90;;;10.40;;
9328;SDS011;4703;48.748;19.142;2023-04-24T07:02:27;14.00;;;10.43;;
9328;SDS011;4703;48.748;19.142;2023-04-24T07:04:54;13.20;;;9.90;;
9328;SDS011;4703;48.748;19.142;2023-04-24T07:07:21;15.33;;;9.97;;
9328;SDS011;4703;48.748;19.142;2023-04-24T07:09:50;12.13;;;10.83;;
9328;SDS011;4703;48.748;19.142;2023-04-24T07:12:17;12.30;;;10.10;;
9328;SDS011;4703;48.748;19.142;2023-04-24T07:14:46;15.47;;;13.30;;
9328;SDS011;4703;48.748;19.142;2023-04-24T07:17:14;15.90;;;11.77;;
9328;SDS011;4703;48.748;19.142;2023-04-24T07:19:41;15.47;;;12.87;;
9328;SDS011;4703;48.748;19.142;2023-04-24T07:22:08;17.40;;;15.50;;
9328;SDS011;4703;48.748;19.142;2023-04-24T07:24:37;14.93;;;13.37;;
9328;SDS011;4703;48.748;19.142;2023-04-24T07:27:04;20.00;;;12.60;;
9328;SDS011;4703;48.748;19.142;2023-04-24T07:29:31;26.40;;;20.07;;
9328;SDS011;4703;48.748;19.142;2023-04-24T07:31:58;15.87;;;14.37;;
9328;SDS011;4703;48.748;19.142;2023-04-24T07:34:28;17.73;;;16.03;;
9328;SDS011;4703;48.748;19.142;2023-04-24T07:36:55;18.00;;;16.10;;
9328;SDS011;4703;48.748;19.142;2023-04-24T07:39:23;15.83;;;14.23;;
9328;SDS011;4703;48.748;19.142;2023-04-24T07:41:50;18.47;;;15.37;;
9328;SDS011;4703;48.748;19.142;2023-04-24T07:44:17;18.33;;;16.07;;
9328;SDS011;4703;48.748;19.142;2023-04-24T07:46:44;20.70;;;17.80;;
9328;SDS011;4703;48.748;19.142;2023-04-24T07:49:12;16.47;;;14.77;;
9328;SDS011;4703;48.748;19.142;2023-04-24T07:51:40;16.80;;;15.10;;
9328;SDS011;4703;48.748;19.142;2023-04-24T07:54:08;17.17;;;15.50;;
9328;SDS011;4703;48.748;19.142;2023-04-24T07:56:35;14.13;;;12.73;;
9328;SDS011;4703;48.748;19.142;2023-04-24T07:59:05;15.03;;;13.50;;
9328;SDS011;4703;48.748;19.142;2023-04-24T08:01:32;13.47;;;12.27;;
9328;SDS011;4703;48.748;19.142;2023-04-24T08:03:59;14.07;;;12.70;;
9328;SDS011;4703;48.748;19.142;2023-04-24T08:06:27;17.70;;;12.70;;
9328;SDS011;4703;48.748;19.142;2023-04-24T08:08:57;13.93;;;12.57;;
9328;SDS011;4703;48.748;19.142;2023-04-24T08:11:24;12.97;;;11.63;;
9328;SDS011;4703;48.748;19.142;2023-04-24T08:13:52;16.70;;;12.43;;
9328;SDS011;4703;48.748;19.142;2023-04-24T08:16:20;16.30;;;14.63;;
9328;SDS011;4703;48.748;19.142;2023-04-24T08:18:47;13.93;;;12.63;;
9328;SDS011;4703;48.748;19.142;2023-04-24T08:21:16;16.23;;;14.63;;
9328;SDS011;4703;48.748;19.142;2023-04-24T08:23:45;19.67;;;17.57;;
9328;SDS011;4703;48.748;19.142;2023-04-24T08:26:12;17.73;;;16.00;;
9328;SDS011;4703;48.748;19.142;2023-04-24T08:28:40;22.90;;;19.53;;
9328;SDS011;4703;48.748;19.142;2023-04-24T08:31:07;18.03;;;16.23;;
9328;SDS011;4703;48.748;19.142;2023-04-24T08:33:34;19.17;;;17.20;;
9328;SDS011;4703;48.748;19.142;2023-04-24T08:36:04;18.27;;;16.40;;
9328;SDS011;4703;48.748;19.142;2023-04-24T08:38:32;19.33;;;15.83;;
9328;SDS011;4703;48.748;19.142;2023-04-24T08:41:00;17.87;;;16.00;;
9328;SDS011;4703;48.748;19.142;2023-04-24T08:43:28;17.70;;;15.53;;
9328;SDS011;4703;48.748;19.142;2023-04-24T08:45:55;17.97;;;16.17;;
9328;SDS011;4703;48.748;19.142;2023-04-24T08:48:25;18.17;;;16.27;;
9328;SDS011;4703;48.748;19.142;2023-04-24T08:50:57;20.23;;;17.60;;
9328;SDS011;4703;48.748;19.142;2023-04-24T08:53:25;20.33;;;18.30;;
9328;SDS011;4703;48.748;19.142;2023-04-24T08:55:54;18.13;;;16.50;;
9328;SDS011;4703;48.748;19.142;2023-04-24T08:58:25;17.07;;;15.23;;
9328;SDS011;4703;48.748;19.142;2023-04-24T09:00:57;18.43;;;16.20;;
9328;SDS011;4703;48.748;19.142;2023-04-24T09:03:24;19.93;;;16.10;;
9328;SDS011;4703;48.748;19.142;2023-04-24T09:05:55;19.27;;;15.80;;
9328;SDS011;4703;48.748;19.142;2023-04-24T09:08:24;17.77;;;15.80;;
9328;SDS011;4703;48.748;19.142;2023-04-24T09:10:52;18.10;;;16.27;;
9328;SDS011;4703;48.748;19.142;2023-04-24T09:13:19;21.90;;;17.73;;
9328;SDS011;4703;48.748;19.142;2023-04-24T09:15:46;21.00;;;18.67;;
9328;SDS011;4703;48.748;19.142;2023-04-24T09:18:13;31.57;;;24.90;;
9328;SDS011;4703;48.748;19.142;2023-04-24T09:23:33;18.83;;;16.83;;
9328;SDS011;4703;48.748;19.142;2023-04-24T09:26:01;21.40;;;16.30;;
9328;SDS011;4703;48.748;19.142;2023-04-24T09:28:34;17.93;;;16.00;;
9328;SDS011;4703;48.748;19.142;2023-04-24T09:31:11;18.67;;;16.77;;
9328;SDS011;4703;48.748;19.142;2023-04-24T09:33:53;17.43;;;15.57;;
9328;SDS011;4703;48.748;19.142;2023-04-24T09:36:27;17.67;;;15.77;;
9328;SDS011;4703;48.748;19.142;2023-04-24T09:39:03;21.30;;;17.30;;
9328;SDS011;4703;48.748;19.142;2023-04-24T09:41:34;18.50;;;16.70;;
9328;SDS011;4703;48.748;19.142;2023-04-24T09:44:11;16.63;;;15.00;;
9328;SDS011;4703;48.748;19.142;2023-04-24T09:46:44;14.70;;;13.20;;
9328;SDS011;4703;48.748;19.142;2023-04-24T09:49:16;15.20;;;13.90;;
9328;SDS011;4703;48.748;19.142;2023-04-24T09:51:52;15.37;;;13.90;;
9328;SDS011;4703;48.748;19.142;2023-04-24T09:54:31;17.03;;;14.87;;
9328;SDS011;4703;48.748;19.142;2023-04-24T09:56:57;17.50;;;15.70;;
9328;SDS011;4703;48.748;19.142;2023-04-24T09:59:26;18.67;;;14.30;;
9328;SDS011;4703;48.748;19.142;2023-04-24T10:01:54;15.67;;;14.17;;
9328;SDS011;4703;48.748;19.142;2023-04-24T10:04:23;16.30;;;14.70;;
9328;SDS011;4703;48.748;19.142;2023-04-24T10:06:52;18.27;;;14.93;;
9328;SDS011;4703;48.748;19.142;2023-04-24T10:09:23;16.60;;;14.47;;
9328;SDS011;4703;48.748;19.142;2023-04-24T10:11:52;14.77;;;13.33;;
9328;SDS011;4703;48.748;19.142;2023-04-24T10:14:24;16.57;;;14.87;;
9328;SDS011;4703;48.748;19.142;2023-04-24T10:16:55;17.80;;;13.20;;
9328;SDS011;4703;48.748;19.142;2023-04-24T10:19:25;15.87;;;14.27;;
9328;SDS011;4703;48.748;19.142;2023-04-24T10:21:52;15.47;;;13.87;;
9328;SDS011;4703;48.748;19.142;2023-04-24T10:24:21;15.90;;;14.30;;
9328;SDS011;4703;48.748;19.142;2023-04-24T10:26:48;15.93;;;14.33;;
9328;SDS011;4703;48.748;19.142;2023-04-24T10:29:17;15.57;;;13.97;;
9328;SDS011;4703;48.748;19.142;2023-04-24T10:31:45;17.17;;;14.00;;
9328;SDS011;4703;48.748;19.142;2023-04-24T10:34:14;16.87;;;14.70;;
9328;SDS011;4703;48.748;19.142;2023-04-24T10:36:45;17.80;;;15.43;;
9328;SDS011;4703;48.748;19.142;2023-04-24T10:39:17;17.43;;;15.70;;
9328;SDS011;4703;48.748;19.142;2023-04-24T10:41:53;20.57;;;15.63;;
9328;SDS011;4703;48.748;19.142;2023-04-24T10:44:23;17.90;;;16.00;;
9328;SDS011;4703;48.748;19.142;2023-04-24T10:46:54;15.07;;;13.67;;
9328;SDS011;4703;48.748;19.142;2023-04-24T10:49:28;15.97;;;14.47;;
9328;SDS011;4703;48.748;19.142;2023-04-24T10:52:01;16.13;;;14.17;;
9328;SDS011;4703;48.748;19.142;2023-04-24T10:59:47;16.60;;;15.10;;
9328;SDS011;4703;48.748;19.142;2023-04-24T11:02:17;16.23;;;14.17;;
9328;SDS011;4703;48.748;19.142;2023-04-24T11:05:05;16.43;;;14.73;;
9328;SDS011;4703;48.748;19.142;2023-04-24T11:10:46;17.70;;;15.60;;
9328;SDS011;4703;48.748;19.142;2023-04-24T11:13:23;16.77;;;15.00;;
9328;SDS011;4703;48.748;19.142;2023-04-24T11:19:05;16.77;;;15.00;;
9328;SDS011;4703;48.748;19.142;2023-04-24T11:21:59;16.83;;;15.30;;
9328;SDS011;4703;48.748;19.142;2023-04-24T11:29:49;17.60;;;15.70;;
9328;SDS011;4703;48.748;19.142;2023-04-24T11:32:33;17.17;;;15.47;;
9328;SDS011;4703;48.748;19.142;2023-04-24T11:35:08;17.17;;;15.50;;
9328;SDS011;4703;48.748;19.142;2023-04-24T11:37:48;17.60;;;15.80;;
9328;SDS011;4703;48.748;19.142;2023-04-24T11:40:20;16.77;;;15.07;;
9328;SDS011;4703;48.748;19.142;2023-04-24T11:42:53;18.50;;;16.70;;
9328;SDS011;4703;48.748;19.142;2023-04-24T11:45:26;19.50;;;17.40;;
9328;SDS011;4703;48.748;19.142;2023-04-24T11:47:56;19.67;;;17.50;;
9328;SDS011;4703;48.748;19.142;2023-04-24T11:50:24;18.00;;;16.30;;
9328;SDS011;4703;48.748;19.142;2023-04-24T11:52:53;18.87;;;15.77;;
9328;SDS011;4703;48.748;19.142;2023-04-24T11:57:50;19.53;;;17.43;;
9328;SDS011;4703;48.748;19.142;2023-04-24T12:00:22;20.43;;;17.33;;
9328;SDS011;4703;48.748;19.142;2023-04-24T12:02:51;18.77;;;16.77;;
9328;SDS011;4703;48.748;19.142;2023-04-24T12:05:30;20.23;;;18.20;;
9328;SDS011;4703;48.748;19.142;2023-04-24T12:07:57;19.27;;;17.30;;
9328;SDS011;4703;48.748;19.142;2023-04-24T12:10:29;20.50;;;18.30;;
9328;SDS011;4703;48.748;19.142;2023-04-24T12:12:58;20.80;;;18.60;;
9328;SDS011;4703;48.748;19.142;2023-04-24T12:15:26;22.23;;;20.03;;
9328;SDS011;4703;48.748;19.142;2023-04-24T12:17:54;23.30;;;20.83;;
9328;SDS011;4703;48.748;19.142;2023-04-24T12:20:26;23.70;;;21.20;;
9328;SDS011;4703;48.748;19.142;2023-04-24T12:22:56;23.97;;;21.57;;
9328;SDS011;4703;48.748;19.142;2023-04-24T12:25:29;21.17;;;18.90;;
9328;SDS011;4703;48.748;19.142;2023-04-24T12:30:38;22.63;;;20.30;;
9328;SDS011;4703;48.748;19.142;2023-04-24T12:33:10;22.93;;;20.60;;
9328;SDS011;4703;48.748;19.142;2023-04-24T12:35:39;22.57;;;20.27;;
9328;SDS011;4703;48.748;19.142;2023-04-24T12:38:12;22.90;;;20.17;;
9328;SDS011;4703;48.748;19.142;2023-04-24T12:40:40;20.63;;;18.63;;
9328;SDS011;4703;48.748;19.142;2023-04-24T12:43:15;21.77;;;19.27;;
9328;SDS011;4703;48.748;19.142;2023-04-24T12:45:47;21.60;;;19.27;;
9328;SDS011;4703;48.748;19.142;2023-04-24T12:48:15;18.47;;;16.70;;
9328;SDS011;4703;48.748;19.142;2023-04-24T12:50:42;18.00;;;16.20;;
9328;SDS011;4703;48.748;19.142;2023-04-24T12:53:12;19.83;;;17.70;;
9328;SDS011;4703;48.748;19.142;2023-04-24T12:55:40;18.20;;;16.30;;
9328;SDS011;4703;48.748;19.142;2023-04-24T12:58:07;20.30;;;18.27;;
9328;SDS011;4703;48.748;19.142;2023-04-24T13:00:34;19.50;;;17.53;;
9328;SDS011;4703;48.748;19.142;2023-04-24T13:03:01;18.40;;;16.67;;
9328;SDS011;4703;48.748;19.142;2023-04-24T13:05:30;20.03;;;17.90;;
9328;SDS011;4703;48.748;19.142;2023-04-24T13:07:57;20.67;;;18.77;;
9328;SDS011;4703;48.748;19.142;2023-04-24T13:10:24;18.77;;;16.97;;
9328;SDS011;4703;48.748;19.142;2023-04-24T13:12:51;20.60;;;18.60;;
9328;SDS011;4703;48.748;19.142;2023-04-24T13:15:18;21.30;;;19.00;;
9328;SDS011;4703;48.748;19.142;2023-04-24T13:17:45;18.40;;;16.53;;
9328;SDS011;4703;48.748;19.142;2023-04-24T13:20:12;18.10;;;16.30;;
9328;SDS011;4703;48.748;19.142;2023-04-24T13:22:39;22.17;;;19.90;;
9328;SDS011;4703;48.748;19.142;2023-04-24T13:25:06;19.80;;;17.90;;
9328;SDS011;4703;48.748;19.142;2023-04-24T13:27:33;21.17;;;18.53;;
9328;SDS011;4703;48.748;19.142;2023-04-24T13:30:00;24.97;;;22.37;;
9328;SDS011;4703;48.748;19.142;2023-04-24T13:32:27;27.50;;;24.60;;
9328;SDS011;4703;48.748;19.142;2023-04-24T13:34:54;28.80;;;25.80;;
9328;SDS011;4703;48.748;19.142;2023-04-24T13:37:23;28.53;;;25.50;;
9328;SDS011;4703;48.748;19.142;2023-04-24T13:39:50;27.83;;;25.03;;
9328;SDS011;4703;48.748;19.142;2023-04-24T13:42:17;29.23;;;26.17;;
9328;SDS011;4703;48.748;19.142;2023-04-24T13:44:46;28.70;;;25.77;;
9328;SDS011;4703;48.748;19.142;2023-04-24T13:47:13;28.97;;;25.97;;
9328;SDS011;4703;48.748;19.142;2023-04-24T13:49:39;31.70;;;28.30;;
9328;SDS011;4703;48.748;19.142;2023-04-24T13:52:07;31.63;;;25.47;;
9328;SDS011;4703;48.748;19.142;2023-04-24T13:54:34;28.60;;;25.63;;
9328;SDS011;4703;48.748;19.142;2023-04-24T13:57:01;27.63;;;24.77;;
9328;SDS011;4703;48.748;19.142;2023-04-24T13:59:29;29.07;;;26.13;;
9328;SDS011;4703;48.748;19.142;2023-04-24T14:01:56;27.43;;;24.57;;
9328;SDS011;4703;48.748;19.142;2023-04-24T14:04:24;26.73;;;24.07;;
9328;SDS011;4703;48.748;19.142;2023-04-24T14:06:51;26.93;;;24.03;;
9328;SDS011;4703;48.748;19.142;2023-04-24T14:09:18;25.97;;;23.37;;
9328;SDS011;4703;48.748;19.142;2023-04-24T14:11:45;25.87;;;23.10;;
9328;SDS011;4703;48.748;19.142;2023-04-24T14:14:12;26.27;;;23.63;;
9328;SDS011;4703;48.748;19.142;2023-04-24T14:16:39;25.57;;;22.87;;
9328;SDS011;4703;48.748;19.142;2023-04-24T14:19:06;24.60;;;21.87;;
9328;SDS011;4703;48.748;19.142;2023-04-24T14:21:33;24.40;;;21.87;;
9328;SDS011;4703;48.748;19.142;2023-04-24T14:24:00;22.83;;;20.63;;
9328;SDS011;4703;48.748;19.142;2023-04-24T14:26:27;21.60;;;19.50;;
9328;SDS011;4703;48.748;19.142;2023-04-24T14:28:54;21.20;;;19.10;;
9328;SDS011;4703;48.748;19.142;2023-04-24T14:31:39;20.27;;;18.27;;
9328;SDS011;4703;48.748;19.142;2023-04-24T14:34:06;20.97;;;18.87;;
9328;SDS011;4703;48.748;19.142;2023-04-24T14:36:33;20.77;;;18.77;;
9328;SDS011;4703;48.748;19.142;2023-04-24T14:39:00;19.47;;;17.40;;
9328;SDS011;4703;48.748;19.142;2023-04-24T14:41:32;21.57;;;18.77;;
9328;SDS011;4703;48.748;19.142;2023-04-24T14:44:02;20.30;;;18.30;;
9328;SDS011;4703;48.748;19.142;2023-04-24T14:46:30;19.07;;;17.07;;
9328;SDS011;4703;48.748;19.142;2023-04-24T14:48:57;18.47;;;16.57;;
9328;SDS011;4703;48.748;19.142;2023-04-24T14:51:24;21.70;;;18.20;;
9328;SDS011;4703;48.748;19.142;2023-04-24T14:53:51;19.63;;;17.73;;
9328;SDS011;4703;48.748;19.142;2023-04-24T14:56:19;20.33;;;18.23;;
9328;SDS011;4703;48.748;19.142;2023-04-24T14:58:46;21.00;;;18.87;;
9328;SDS011;4703;48.748;19.142;2023-04-24T15:01:13;21.60;;;19.43;;
9328;SDS011;4703;48.748;19.142;2023-04-24T15:03:41;22.07;;;19.90;;
9328;SDS011;4703;48.748;19.142;2023-04-24T15:06:08;23.70;;;21.10;;
9328;SDS011;4703;48.748;19.142;2023-04-24T15:08:35;28.13;;;25.10;;
9328;SDS011;4703;48.748;19.142;2023-04-24T15:11:02;29.17;;;26.07;;
9328;SDS011;4703;48.748;19.142;2023-04-24T15:13:30;32.90;;;29.10;;